sensor_id;sensor_type;location;lat;lon;timestamp;temperature;humidity
13798;DHT22;6970;51.340;3.240;2024-01-07T00:01:54;5.70;99.90
13798;DHT22;6970;51.340;3.240;2024-01-07T00:04:25;5.70;99.90
13798;DHT22;6970;51.340;3.240;2024-01-07T00:06:55;5.70;99.90
13798;DHT22;6970;51.340;3.240;2024-01-07T00:09:23;5.80;99.90
13798;DHT22;6970;51.340;3.240;2024-01-07T00:11:53;5.80;99.90
13798;DHT22;6970;51.340;3.240;2024-01-07T00:14:20;5.80;99.90
13798;DHT22;6970;51.340;3.240;2024-01-07T00:16:50;5.80;99.90
13798;DHT22;6970;51.340;3.240;2024-01-07T00:19:18;5.80;99.90
13798;DHT22;6970;51.340;3.240;2024-01-07T00:21:54;5.80;99.90
13798;DHT22;6970;51.340;3.240;2024-01-07T00:24:24;5.80;99.90
13798;DHT22;6970;51.340;3.240;2024-01-07T00:26:55;5.80;99.90
13798;DHT22;6970;51.340;3.240;2024-01-07T00:29:22;5.70;99.90
13798;DHT22;6970;51.340;3.240;2024-01-07T00:31:53;5.80;99.90
13798;DHT22;6970;51.340;3.240;2024-01-07T00:34:20;5.80;99.90
13798;DHT22;6970;51.340;3.240;2024-01-07T00:36:50;5.80;99.90
13798;DHT22;6970;51.340;3.240;2024-01-07T00:39:17;5.80;99.90
13798;DHT22;6970;51.340;3.240;2024-01-07T00:41:47;5.80;99.90
13798;DHT22;6970;51.340;3.240;2024-01-07T00:44:16;5.70;99.90
13798;DHT22;6970;51.340;3.240;2024-01-07T00:46:43;5.70;99.90
13798;DHT22;6970;51.340;3.240;2024-01-07T00:49:16;5.70;99.90
13798;DHT22;6970;51.340;3.240;2024-01-07T00:51:44;5.60;99.90
13798;DHT22;6970;51.340;3.240;2024-01-07T00:54:12;5.60;99.90
13798;DHT22;6970;51.340;3.240;2024-01-07T00:56:39;5.60;99.90
13798;DHT22;6970;51.340;3.240;2024-01-07T00:59:09;5.60;99.90
13798;DHT22;6970;51.340;3.240;2024-01-07T01:01:37;5.70;99.90
13798;DHT22;6970;51.340;3.240;2024-01-07T01:04:08;5.70;99.90
13798;DHT22;6970;51.340;3.240;2024-01-07T01:06:37;5.60;99.90
13798;DHT22;6970;51.340;3.240;2024-01-07T01:09:05;5.60;99.90
13798;DHT22;6970;51.340;3.240;2024-01-07T01:11:35;5.60;99.90
13798;DHT22;6970;51.340;3.240;2024-01-07T01:14:02;5.60;99.90
13798;DHT22;6970;51.340;3.240;2024-01-07T01:16:32;5.50;99.90
13798;DHT22;6970;51.340;3.240;2024-01-07T01:19:03;5.50;99.90
13798;DHT22;6970;51.340;3.240;2024-01-07T01:21:36;5.50;99.90
13798;DHT22;6970;51.340;3.240;2024-01-07T01:24:04;5.50;99.90
13798;DHT22;6970;51.340;3.240;2024-01-07T01:26:31;5.40;99.90
13798;DHT22;6970;51.340;3.240;2024-01-07T01:28:58;5.40;99.90
13798;DHT22;6970;51.340;3.240;2024-01-07T01:31:29;5.30;99.90
13798;DHT22;6970;51.340;3.240;2024-01-07T01:33:59;5.30;99.90
13798;DHT22;6970;51.340;3.240;2024-01-07T01:36:27;5.30;99.90
13798;DHT22;6970;51.340;3.240;2024-01-07T01:38:54;5.30;99.90
13798;DHT22;6970;51.340;3.240;2024-01-07T01:41:24;5.20;99.90
13798;DHT22;6970;51.340;3.240;2024-01-07T01:44:00;5.20;99.90
13798;DHT22;6970;51.340;3.240;2024-01-07T01:46:29;5.20;99.90
13798;DHT22;6970;51.340;3.240;2024-01-07T01:49:00;5.10;99.90
13798;DHT22;6970;51.340;3.240;2024-01-07T01:51:30;5.10;99.90
13798;DHT22;6970;51.340;3.240;2024-01-07T01:53:58;5.10;99.90
13798;DHT22;6970;51.340;3.240;2024-01-07T01:56:30;5.20;99.90
13798;DHT22;6970;51.340;3.240;2024-01-07T01:59:00;5.10;99.90
13798;DHT22;6970;51.340;3.240;2024-01-07T02:01:30;5.20;99.90
13798;DHT22;6970;51.340;3.240;2024-01-07T02:03:58;5.20;99.90
13798;DHT22;6970;51.340;3.240;2024-01-07T02:06:26;5.20;99.90
13798;DHT22;6970;51.340;3.240;2024-01-07T02:08:55;5.20;99.90
13798;DHT22;6970;51.340;3.240;2024-01-07T02:11:25;5.20;99.90
13798;DHT22;6970;51.340;3.240;2024-01-07T02:13:54;5.20;99.90
13798;DHT22;6970;51.340;3.240;2024-01-07T02:16:24;5.20;99.90
13798;DHT22;6970;51.340;3.240;2024-01-07T02:18:54;5.20;99.90
13798;DHT22;6970;51.340;3.240;2024-01-07T02:21:21;5.20;99.90
13798;DHT22;6970;51.340;3.240;2024-01-07T02:23:50;5.20;99.90
13798;DHT22;6970;51.340;3.240;2024-01-07T02:26:18;5.20;99.90
13798;DHT22;6970;51.340;3.240;2024-01-07T02:28:46;5.20;99.90
13798;DHT22;6970;51.340;3.240;2024-01-07T02:31:15;5.20;99.90
13798;DHT22;6970;51.340;3.240;2024-01-07T02:33:44;5.20;99.90
13798;DHT22;6970;51.340;3.240;2024-01-07T02:36:15;5.20;99.90
13798;DHT22;6970;51.340;3.240;2024-01-07T02:38:42;5.20;99.90
13798;DHT22;6970;51.340;3.240;2024-01-07T02:41:10;5.10;99.90
13798;DHT22;6970;51.340;3.240;2024-01-07T02:43:37;5.10;99.90
13798;DHT22;6970;51.340;3.240;2024-01-07T02:46:08;5.10;99.90
13798;DHT22;6970;51.340;3.240;2024-01-07T02:48:38;5.10;99.90
13798;DHT22;6970;51.340;3.240;2024-01-07T02:51:09;5.10;99.90
13798;DHT22;6970;51.340;3.240;2024-01-07T02:53:39;5.10;99.90
13798;DHT22;6970;51.340;3.240;2024-01-07T02:56:06;5.10;99.90
13798;DHT22;6970;51.340;3.240;2024-01-07T02:58:36;5.10;99.90
13798;DHT22;6970;51.340;3.240;2024-01-07T03:01:10;5.00;99.90
13798;DHT22;6970;51.340;3.240;2024-01-07T03:03:39;5.00;99.90
13798;DHT22;6970;51.340;3.240;2024-01-07T03:06:08;5.00;99.90
13798;DHT22;6970;51.340;3.240;2024-01-07T03:08:36;5.00;99.90
13798;DHT22;6970;51.340;3.240;2024-01-07T03:11:09;5.00;99.90
13798;DHT22;6970;51.340;3.240;2024-01-07T03:13:40;5.00;99.90
13798;DHT22;6970;51.340;3.240;2024-01-07T03:16:07;5.00;99.90
13798;DHT22;6970;51.340;3.240;2024-01-07T03:18:34;5.00;99.90
13798;DHT22;6970;51.340;3.240;2024-01-07T03:21:03;5.00;99.90
13798;DHT22;6970;51.340;3.240;2024-01-07T03:23:31;5.00;99.90
13798;DHT22;6970;51.340;3.240;2024-01-07T03:26:01;5.00;99.90
13798;DHT22;6970;51.340;3.240;2024-01-07T03:28:29;5.00;99.90
13798;DHT22;6970;51.340;3.240;2024-01-07T03:31:03;5.00;99.90
13798;DHT22;6970;51.340;3.240;2024-01-07T03:33:33;5.00;99.90
13798;DHT22;6970;51.340;3.240;2024-01-07T03:36:00;5.00;99.90
13798;DHT22;6970;51.340;3.240;2024-01-07T03:38:28;5.00;99.90
13798;DHT22;6970;51.340;3.240;2024-01-07T03:40:55;5.00;99.90
13798;DHT22;6970;51.340;3.240;2024-01-07T03:43:25;5.00;99.90
13798;DHT22;6970;51.340;3.240;2024-01-07T03:45:54;5.00;99.90
13798;DHT22;6970;51.340;3.240;2024-01-07T03:48:22;5.00;99.90
13798;DHT22;6970;51.340;3.240;2024-01-07T03:50:49;5.00;99.90
13798;DHT22;6970;51.340;3.240;2024-01-07T03:53:20;5.00;99.90
13798;DHT22;6970;51.340;3.240;2024-01-07T03:55:49;5.10;99.90
13798;DHT22;6970;51.340;3.240;2024-01-07T03:58:18;5.10;99.90
13798;DHT22;6970;51.340;3.240;2024-01-07T04:00:47;5.10;99.90
13798;DHT22;6970;51.340;3.240;2024-01-07T04:03:16;5.10;99.90
13798;DHT22;6970;51.340;3.240;2024-01-07T04:05:44;5.00;99.90
13798;DHT22;6970;51.340;3.240;2024-01-07T04:08:15;5.10;99.90
13798;DHT22;6970;51.340;3.240;2024-01-07T04:10:42;5.10;99.90
13798;DHT22;6970;51.340;3.240;2024-01-07T04:13:12;5.10;99.90
13798;DHT22;6970;51.340;3.240;2024-01-07T04:15:41;5.00;99.90
13798;DHT22;6970;51.340;3.240;2024-01-07T04:18:12;5.00;99.90
13798;DHT22;6970;51.340;3.240;2024-01-07T04:20:42;4.90;99.90
13798;DHT22;6970;51.340;3.240;2024-01-07T04:23:10;4.90;99.90
13798;DHT22;6970;51.340;3.240;2024-01-07T04:25:40;4.80;99.90
13798;DHT22;6970;51.340;3.240;2024-01-07T04:28:11;4.80;99.90
13798;DHT22;6970;51.340;3.240;2024-01-07T04:30:41;4.70;99.90
13798;DHT22;6970;51.340;3.240;2024-01-07T04:33:11;4.70;99.90
13798;DHT22;6970;51.340;3.240;2024-01-07T04:35:38;4.60;99.90
13798;DHT22;6970;51.340;3.240;2024-01-07T04:38:12;4.50;99.90
13798;DHT22;6970;51.340;3.240;2024-01-07T04:40:42;4.50;99.90
13798;DHT22;6970;51.340;3.240;2024-01-07T04:43:09;4.40;99.90
13798;DHT22;6970;51.340;3.240;2024-01-07T04:45:39;4.40;99.90
13798;DHT22;6970;51.340;3.240;2024-01-07T04:48:13;4.30;99.90
13798;DHT22;6970;51.340;3.240;2024-01-07T04:50:42;4.30;99.90
13798;DHT22;6970;51.340;3.240;2024-01-07T04:53:10;4.30;99.90
13798;DHT22;6970;51.340;3.240;2024-01-07T04:55:37;4.30;99.90
13798;DHT22;6970;51.340;3.240;2024-01-07T04:58:05;4.30;99.90
13798;DHT22;6970;51.340;3.240;2024-01-07T05:00:36;4.30;99.90
13798;DHT22;6970;51.340;3.240;2024-01-07T05:03:04;4.20;99.90
13798;DHT22;6970;51.340;3.240;2024-01-07T05:05:32;4.20;99.90
13798;DHT22;6970;51.340;3.240;2024-01-07T05:08:03;4.20;99.90
13798;DHT22;6970;51.340;3.240;2024-01-07T05:10:34;4.20;99.90
13798;DHT22;6970;51.340;3.240;2024-01-07T05:13:03;4.20;99.90
13798;DHT22;6970;51.340;3.240;2024-01-07T05:15:33;4.20;99.90
13798;DHT22;6970;51.340;3.240;2024-01-07T05:18:01;4.20;99.90
13798;DHT22;6970;51.340;3.240;2024-01-07T05:20:32;4.20;99.90
13798;DHT22;6970;51.340;3.240;2024-01-07T05:23:00;4.20;99.90
13798;DHT22;6970;51.340;3.240;2024-01-07T05:25:28;4.20;99.90
13798;DHT22;6970;51.340;3.240;2024-01-07T05:27:55;4.10;99.90
13798;DHT22;6970;51.340;3.240;2024-01-07T05:30:26;4.10;99.90
13798;DHT22;6970;51.340;3.240;2024-01-07T05:32:56;4.10;99.90
13798;DHT22;6970;51.340;3.240;2024-01-07T05:35:25;4.10;99.90
13798;DHT22;6970;51.340;3.240;2024-01-07T05:37:52;4.10;99.90
13798;DHT22;6970;51.340;3.240;2024-01-07T05:40:22;4.10;99.90
13798;DHT22;6970;51.340;3.240;2024-01-07T05:42:50;4.10;99.90
13798;DHT22;6970;51.340;3.240;2024-01-07T05:45:18;4.10;99.90
13798;DHT22;6970;51.340;3.240;2024-01-07T05:47:45;4.10;99.90
13798;DHT22;6970;51.340;3.240;2024-01-07T05:50:13;4.10;99.90
13798;DHT22;6970;51.340;3.240;2024-01-07T05:52:42;4.10;99.90
13798;DHT22;6970;51.340;3.240;2024-01-07T05:55:12;4.00;99.90
13798;DHT22;6970;51.340;3.240;2024-01-07T05:57:40;4.10;99.90
13798;DHT22;6970;51.340;3.240;2024-01-07T06:00:11;4.10;99.90
13798;DHT22;6970;51.340;3.240;2024-01-07T06:02:40;4.00;99.90
13798;DHT22;6970;51.340;3.240;2024-01-07T06:05:13;4.00;99.90
13798;DHT22;6970;51.340;3.240;2024-01-07T06:07:44;4.00;99.90
13798;DHT22;6970;51.340;3.240;2024-01-07T06:10:14;4.10;99.90
13798;DHT22;6970;51.340;3.240;2024-01-07T06:12:41;4.00;99.90
13798;DHT22;6970;51.340;3.240;2024-01-07T06:15:15;4.00;99.90
13798;DHT22;6970;51.340;3.240;2024-01-07T06:17:42;4.00;99.90
13798;DHT22;6970;51.340;3.240;2024-01-07T06:20:09;4.00;99.90
13798;DHT22;6970;51.340;3.240;2024-01-07T06:22:37;4.00;99.90
13798;DHT22;6970;51.340;3.240;2024-01-07T06:25:10;4.00;99.90
13798;DHT22;6970;51.340;3.240;2024-01-07T06:27:42;3.90;99.90
13798;DHT22;6970;51.340;3.240;2024-01-07T06:30:12;4.00;99.90
13798;DHT22;6970;51.340;3.240;2024-01-07T06:32:43;3.90;99.90
13798;DHT22;6970;51.340;3.240;2024-01-07T06:35:13;3.90;99.90
13798;DHT22;6970;51.340;3.240;2024-01-07T06:37:46;3.90;99.90
13798;DHT22;6970;51.340;3.240;2024-01-07T06:40:19;3.90;99.90
13798;DHT22;6970;51.340;3.240;2024-01-07T06:42:47;3.90;99.90
13798;DHT22;6970;51.340;3.240;2024-01-07T06:45:21;3.90;99.90
13798;DHT22;6970;51.340;3.240;2024-01-07T06:47:54;3.90;99.90
13798;DHT22;6970;51.340;3.240;2024-01-07T06:50:24;3.90;99.90
13798;DHT22;6970;51.340;3.240;2024-01-07T06:52:51;3.90;99.90
13798;DHT22;6970;51.340;3.240;2024-01-07T06:55:18;3.90;99.90
13798;DHT22;6970;51.340;3.240;2024-01-07T06:57:48;3.90;99.90
13798;DHT22;6970;51.340;3.240;2024-01-07T07:00:16;3.90;99.90
13798;DHT22;6970;51.340;3.240;2024-01-07T07:02:45;4.00;99.90
13798;DHT22;6970;51.340;3.240;2024-01-07T07:05:12;4.00;99.90
13798;DHT22;6970;51.340;3.240;2024-01-07T07:07:39;3.90;99.90
13798;DHT22;6970;51.340;3.240;2024-01-07T07:10:07;3.90;99.90
13798;DHT22;6970;51.340;3.240;2024-01-07T07:12:35;3.90;99.90
13798;DHT22;6970;51.340;3.240;2024-01-07T07:15:04;3.90;99.90
13798;DHT22;6970;51.340;3.240;2024-01-07T07:17:31;3.90;99.90
13798;DHT22;6970;51.340;3.240;2024-01-07T07:20:01;4.00;99.90
13798;DHT22;6970;51.340;3.240;2024-01-07T07:22:32;3.90;99.90
13798;DHT22;6970;51.340;3.240;2024-01-07T07:25:02;3.90;99.90
13798;DHT22;6970;51.340;3.240;2024-01-07T07:27:36;3.90;99.90
13798;DHT22;6970;51.340;3.240;2024-01-07T07:30:07;3.90;99.90
13798;DHT22;6970;51.340;3.240;2024-01-07T07:32:39;3.90;99.90
13798;DHT22;6970;51.340;3.240;2024-01-07T07:35:08;3.90;99.90
13798;DHT22;6970;51.340;3.240;2024-01-07T07:37:38;3.90;99.90
13798;DHT22;6970;51.340;3.240;2024-01-07T07:40:11;3.90;99.90
13798;DHT22;6970;51.340;3.240;2024-01-07T07:42:41;3.90;99.90
13798;DHT22;6970;51.340;3.240;2024-01-07T07:45:15;3.90;99.90
13798;DHT22;6970;51.340;3.240;2024-01-07T07:47:44;3.90;99.90
13798;DHT22;6970;51.340;3.240;2024-01-07T07:50:15;3.90;99.90
13798;DHT22;6970;51.340;3.240;2024-01-07T07:52:43;3.90;99.90
13798;DHT22;6970;51.340;3.240;2024-01-07T07:55:14;3.90;99.90
13798;DHT22;6970;51.340;3.240;2024-01-07T07:57:41;3.90;99.90
13798;DHT22;6970;51.340;3.240;2024-01-07T08:00:10;3.90;99.90
13798;DHT22;6970;51.340;3.240;2024-01-07T08:02:39;3.90;99.90
13798;DHT22;6970;51.340;3.240;2024-01-07T08:05:10;3.90;99.90
13798;DHT22;6970;51.340;3.240;2024-01-07T08:07:38;3.90;99.90
13798;DHT22;6970;51.340;3.240;2024-01-07T08:10:08;3.90;99.90
13798;DHT22;6970;51.340;3.240;2024-01-07T08:12:35;3.90;99.90
13798;DHT22;6970;51.340;3.240;2024-01-07T08:15:03;3.90;99.90
13798;DHT22;6970;51.340;3.240;2024-01-07T08:17:33;3.90;99.90
13798;DHT22;6970;51.340;3.240;2024-01-07T08:20:01;3.90;99.90
13798;DHT22;6970;51.340;3.240;2024-01-07T08:22:30;3.90;99.90
13798;DHT22;6970;51.340;3.240;2024-01-07T08:25:01;3.90;99.90
13798;DHT22;6970;51.340;3.240;2024-01-07T08:27:31;3.90;99.90
13798;DHT22;6970;51.340;3.240;2024-01-07T08:30:01;3.90;99.90
13798;DHT22;6970;51.340;3.240;2024-01-07T08:32:28;3.90;99.90
13798;DHT22;6970;51.340;3.240;2024-01-07T08:34:55;3.90;99.90
13798;DHT22;6970;51.340;3.240;2024-01-07T08:37:26;3.90;99.90
13798;DHT22;6970;51.340;3.240;2024-01-07T08:39:54;3.90;99.90
13798;DHT22;6970;51.340;3.240;2024-01-07T08:42:24;3.90;99.90
13798;DHT22;6970;51.340;3.240;2024-01-07T08:44:55;3.90;99.90
13798;DHT22;6970;51.340;3.240;2024-01-07T08:47:23;3.90;99.90
13798;DHT22;6970;51.340;3.240;2024-01-07T08:49:51;3.90;99.90
13798;DHT22;6970;51.340;3.240;2024-01-07T08:52:24;3.80;99.90
13798;DHT22;6970;51.340;3.240;2024-01-07T08:54:53;3.90;99.90
13798;DHT22;6970;51.340;3.240;2024-01-07T08:57:21;3.90;99.90
13798;DHT22;6970;51.340;3.240;2024-01-07T08:59:49;3.90;99.90
13798;DHT22;6970;51.340;3.240;2024-01-07T09:02:19;3.90;99.90
13798;DHT22;6970;51.340;3.240;2024-01-07T09:04:46;3.90;99.90
13798;DHT22;6970;51.340;3.240;2024-01-07T09:07:16;3.90;99.90
13798;DHT22;6970;51.340;3.240;2024-01-07T09:09:43;3.90;99.90
13798;DHT22;6970;51.340;3.240;2024-01-07T09:12:14;3.90;99.90
13798;DHT22;6970;51.340;3.240;2024-01-07T09:14:41;3.90;99.90
13798;DHT22;6970;51.340;3.240;2024-01-07T09:17:08;3.90;99.90
13798;DHT22;6970;51.340;3.240;2024-01-07T09:19:36;3.90;99.90
13798;DHT22;6970;51.340;3.240;2024-01-07T09:22:04;3.90;99.90
13798;DHT22;6970;51.340;3.240;2024-01-07T09:24:31;3.90;99.90
13798;DHT22;6970;51.340;3.240;2024-01-07T09:26:59;3.90;99.90
13798;DHT22;6970;51.340;3.240;2024-01-07T09:29:27;3.90;99.90
13798;DHT22;6970;51.340;3.240;2024-01-07T09:31:56;3.90;99.90
13798;DHT22;6970;51.340;3.240;2024-01-07T09:34:23;3.90;99.90
13798;DHT22;6970;51.340;3.240;2024-01-07T09:36:51;3.90;99.90
13798;DHT22;6970;51.340;3.240;2024-01-07T09:39:18;3.90;99.90
13798;DHT22;6970;51.340;3.240;2024-01-07T09:41:45;3.90;99.90
13798;DHT22;6970;51.340;3.240;2024-01-07T09:44:14;3.90;99.90
13798;DHT22;6970;51.340;3.240;2024-01-07T09:46:45;3.90;99.90
13798;DHT22;6970;51.340;3.240;2024-01-07T09:49:19;3.90;99.90
13798;DHT22;6970;51.340;3.240;2024-01-07T09:51:50;3.90;99.90
13798;DHT22;6970;51.340;3.240;2024-01-07T09:54:23;3.90;99.90
13798;DHT22;6970;51.340;3.240;2024-01-07T09:57:03;3.90;99.90
13798;DHT22;6970;51.340;3.240;2024-01-07T09:59:35;3.90;99.90
13798;DHT22;6970;51.340;3.240;2024-01-07T10:02:09;3.90;99.90
13798;DHT22;6970;51.340;3.240;2024-01-07T10:04:39;3.90;99.90
13798;DHT22;6970;51.340;3.240;2024-01-07T10:07:07;3.90;99.90
13798;DHT22;6970;51.340;3.240;2024-01-07T10:09:37;3.90;99.90
13798;DHT22;6970;51.340;3.240;2024-01-07T10:12:09;3.90;99.90
13798;DHT22;6970;51.340;3.240;2024-01-07T10:14:36;4.00;99.90
13798;DHT22;6970;51.340;3.240;2024-01-07T10:17:16;4.00;99.90
13798;DHT22;6970;51.340;3.240;2024-01-07T10:19:44;4.00;99.90
13798;DHT22;6970;51.340;3.240;2024-01-07T10:22:17;4.00;99.90
13798;DHT22;6970;51.340;3.240;2024-01-07T10:24:46;4.00;99.90
13798;DHT22;6970;51.340;3.240;2024-01-07T10:27:18;4.10;99.90
13798;DHT22;6970;51.340;3.240;2024-01-07T10:29:48;4.00;99.90
13798;DHT22;6970;51.340;3.240;2024-01-07T10:32:21;4.00;99.90
13798;DHT22;6970;51.340;3.240;2024-01-07T10:34:51;4.00;99.90
13798;DHT22;6970;51.340;3.240;2024-01-07T10:37:24;3.90;99.90
13798;DHT22;6970;51.340;3.240;2024-01-07T10:39:58;3.90;99.90
13798;DHT22;6970;51.340;3.240;2024-01-07T10:42:35;3.90;99.90
13798;DHT22;6970;51.340;3.240;2024-01-07T10:45:02;3.90;99.90
13798;DHT22;6970;51.340;3.240;2024-01-07T10:47:34;3.90;99.90
13798;DHT22;6970;51.340;3.240;2024-01-07T10:50:05;3.90;99.90
13798;DHT22;6970;51.340;3.240;2024-01-07T10:52:40;3.90;99.90
13798;DHT22;6970;51.340;3.240;2024-01-07T10:55:13;3.90;99.90
13798;DHT22;6970;51.340;3.240;2024-01-07T10:57:47;3.90;99.90
13798;DHT22;6970;51.340;3.240;2024-01-07T11:00:15;3.90;99.90
13798;DHT22;6970;51.340;3.240;2024-01-07T11:03:09;3.90;99.90
13798;DHT22;6970;51.340;3.240;2024-01-07T11:05:50;4.00;99.90
13798;DHT22;6970;51.340;3.240;2024-01-07T11:08:43;4.00;99.90
13798;DHT22;6970;51.340;3.240;2024-01-07T11:11:23;4.00;99.90
13798;DHT22;6970;51.340;3.240;2024-01-07T11:13:52;4.10;99.90
13798;DHT22;6970;51.340;3.240;2024-01-07T11:16:42;4.00;99.90
13798;DHT22;6970;51.340;3.240;2024-01-07T11:19:13;4.00;99.90
13798;DHT22;6970;51.340;3.240;2024-01-07T11:21:44;4.10;99.90
13798;DHT22;6970;51.340;3.240;2024-01-07T11:24:39;4.00;99.90
13798;DHT22;6970;51.340;3.240;2024-01-07T11:27:12;4.00;99.90
13798;DHT22;6970;51.340;3.240;2024-01-07T11:29:42;4.00;99.90
13798;DHT22;6970;51.340;3.240;2024-01-07T11:32:16;3.90;99.90
13798;DHT22;6970;51.340;3.240;2024-01-07T11:34:47;3.90;99.90
13798;DHT22;6970;51.340;3.240;2024-01-07T11:37:20;3.90;99.90
13798;DHT22;6970;51.340;3.240;2024-01-07T11:39:54;3.80;99.90
13798;DHT22;6970;51.340;3.240;2024-01-07T11:42:25;3.80;99.90
13798;DHT22;6970;51.340;3.240;2024-01-07T11:44:58;3.80;99.90
13798;DHT22;6970;51.340;3.240;2024-01-07T11:47:28;3.70;99.90
13798;DHT22;6970;51.340;3.240;2024-01-07T11:49:57;3.70;99.90
13798;DHT22;6970;51.340;3.240;2024-01-07T11:52:27;3.60;99.90
13798;DHT22;6970;51.340;3.240;2024-01-07T11:54:59;3.60;99.90
13798;DHT22;6970;51.340;3.240;2024-01-07T11:57:27;3.60;99.90
13798;DHT22;6970;51.340;3.240;2024-01-07T11:59:57;3.60;99.90
13798;DHT22;6970;51.340;3.240;2024-01-07T12:02:24;3.60;99.90
13798;DHT22;6970;51.340;3.240;2024-01-07T12:04:55;3.60;99.90
13798;DHT22;6970;51.340;3.240;2024-01-07T12:07:23;3.60;99.90
13798;DHT22;6970;51.340;3.240;2024-01-07T12:09:57;3.60;99.90
13798;DHT22;6970;51.340;3.240;2024-01-07T12:12:28;3.60;99.90
13798;DHT22;6970;51.340;3.240;2024-01-07T12:14:55;3.70;99.90
13798;DHT22;6970;51.340;3.240;2024-01-07T12:17:26;3.70;99.90
13798;DHT22;6970;51.340;3.240;2024-01-07T12:20:00;3.70;99.90
13798;DHT22;6970;51.340;3.240;2024-01-07T12:22:30;3.70;99.90
13798;DHT22;6970;51.340;3.240;2024-01-07T12:25:09;3.70;99.90
13798;DHT22;6970;51.340;3.240;2024-01-07T12:27:41;3.70;99.90
13798;DHT22;6970;51.340;3.240;2024-01-07T12:30:08;3.70;99.90
13798;DHT22;6970;51.340;3.240;2024-01-07T12:32:37;3.60;99.90
13798;DHT22;6970;51.340;3.240;2024-01-07T12:35:04;3.60;99.90
13798;DHT22;6970;51.340;3.240;2024-01-07T12:37:39;3.60;99.90
13798;DHT22;6970;51.340;3.240;2024-01-07T12:40:07;3.70;99.90
13798;DHT22;6970;51.340;3.240;2024-01-07T12:42:39;3.70;99.90
13798;DHT22;6970;51.340;3.240;2024-01-07T12:45:14;3.70;99.90
13798;DHT22;6970;51.340;3.240;2024-01-07T12:47:45;3.70;99.90
13798;DHT22;6970;51.340;3.240;2024-01-07T12:50:14;3.70;99.90
13798;DHT22;6970;51.340;3.240;2024-01-07T12:52:42;3.70;99.90
13798;DHT22;6970;51.340;3.240;2024-01-07T12:55:13;3.60;99.90
13798;DHT22;6970;51.340;3.240;2024-01-07T12:57:40;3.60;99.90
13798;DHT22;6970;51.340;3.240;2024-01-07T13:00:08;3.60;99.90
13798;DHT22;6970;51.340;3.240;2024-01-07T13:02:35;3.60;99.90
13798;DHT22;6970;51.340;3.240;2024-01-07T13:05:07;3.60;99.90
13798;DHT22;6970;51.340;3.240;2024-01-07T13:07:38;3.60;99.90
13798;DHT22;6970;51.340;3.240;2024-01-07T13:10:06;3.60;99.90
13798;DHT22;6970;51.340;3.240;2024-01-07T13:12:36;3.60;99.90
13798;DHT22;6970;51.340;3.240;2024-01-07T13:15:14;3.50;99.90
13798;DHT22;6970;51.340;3.240;2024-01-07T13:17:44;3.50;99.90
13798;DHT22;6970;51.340;3.240;2024-01-07T13:20:13;3.50;99.90
13798;DHT22;6970;51.340;3.240;2024-01-07T13:22:42;3.50;99.90
13798;DHT22;6970;51.340;3.240;2024-01-07T13:25:16;3.50;99.90
13798;DHT22;6970;51.340;3.240;2024-01-07T13:27:46;3.40;99.90
13798;DHT22;6970;51.340;3.240;2024-01-07T13:30:16;3.40;99.90
13798;DHT22;6970;51.340;3.240;2024-01-07T13:32:47;3.40;99.90
13798;DHT22;6970;51.340;3.240;2024-01-07T13:35:17;3.40;99.90
13798;DHT22;6970;51.340;3.240;2024-01-07T13:37:48;3.40;99.90
13798;DHT22;6970;51.340;3.240;2024-01-07T13:40:18;3.40;99.90
13798;DHT22;6970;51.340;3.240;2024-01-07T13:42:45;3.30;99.90
13798;DHT22;6970;51.340;3.240;2024-01-07T13:45:13;3.30;99.90
13798;DHT22;6970;51.340;3.240;2024-01-07T13:47:43;3.30;99.90
13798;DHT22;6970;51.340;3.240;2024-01-07T13:50:11;3.30;99.90
13798;DHT22;6970;51.340;3.240;2024-01-07T13:52:40;3.30;99.90
13798;DHT22;6970;51.340;3.240;2024-01-07T13:55:13;3.20;99.90
13798;DHT22;6970;51.340;3.240;2024-01-07T13:57:43;3.20;99.90
13798;DHT22;6970;51.340;3.240;2024-01-07T14:00:16;3.20;99.90
13798;DHT22;6970;51.340;3.240;2024-01-07T14:02:47;3.20;99.90
13798;DHT22;6970;51.340;3.240;2024-01-07T14:05:14;3.10;99.90
13798;DHT22;6970;51.340;3.240;2024-01-07T14:07:43;3.10;99.90
13798;DHT22;6970;51.340;3.240;2024-01-07T14:10:13;3.10;99.90
13798;DHT22;6970;51.340;3.240;2024-01-07T14:12:45;3.10;99.90
13798;DHT22;6970;51.340;3.240;2024-01-07T14:15:15;3.10;99.90
13798;DHT22;6970;51.340;3.240;2024-01-07T14:17:47;3.10;99.90
13798;DHT22;6970;51.340;3.240;2024-01-07T14:20:18;3.20;99.90
13798;DHT22;6970;51.340;3.240;2024-01-07T14:22:52;3.20;99.90
13798;DHT22;6970;51.340;3.240;2024-01-07T14:25:19;3.10;99.90
13798;DHT22;6970;51.340;3.240;2024-01-07T14:27:50;3.10;99.90
13798;DHT22;6970;51.340;3.240;2024-01-07T14:30:18;3.10;99.90
13798;DHT22;6970;51.340;3.240;2024-01-07T14:32:48;3.10;99.90
13798;DHT22;6970;51.340;3.240;2024-01-07T14:35:20;3.10;99.90
13798;DHT22;6970;51.340;3.240;2024-01-07T14:37:50;3.10;99.90
13798;DHT22;6970;51.340;3.240;2024-01-07T14:40:22;3.10;99.90
13798;DHT22;6970;51.340;3.240;2024-01-07T14:42:51;3.10;99.90
13798;DHT22;6970;51.340;3.240;2024-01-07T14:45:26;3.10;99.90
13798;DHT22;6970;51.340;3.240;2024-01-07T14:47:55;3.00;99.90
13798;DHT22;6970;51.340;3.240;2024-01-07T14:50:24;3.00;99.90
13798;DHT22;6970;51.340;3.240;2024-01-07T14:53:05;3.00;99.90
13798;DHT22;6970;51.340;3.240;2024-01-07T14:55:36;3.00;99.90
13798;DHT22;6970;51.340;3.240;2024-01-07T14:58:09;3.00;99.90
13798;DHT22;6970;51.340;3.240;2024-01-07T15:00:39;3.00;99.90
13798;DHT22;6970;51.340;3.240;2024-01-07T15:03:10;3.00;99.90
13798;DHT22;6970;51.340;3.240;2024-01-07T15:05:40;3.00;99.90
13798;DHT22;6970;51.340;3.240;2024-01-07T15:08:09;2.90;99.90
13798;DHT22;6970;51.340;3.240;2024-01-07T15:10:43;2.90;99.90
13798;DHT22;6970;51.340;3.240;2024-01-07T15:13:10;2.90;99.90
13798;DHT22;6970;51.340;3.240;2024-01-07T15:15:49;2.90;99.90
13798;DHT22;6970;51.340;3.240;2024-01-07T15:18:18;2.90;99.90
13798;DHT22;6970;51.340;3.240;2024-01-07T15:20:48;2.90;99.90
13798;DHT22;6970;51.340;3.240;2024-01-07T15:23:27;2.90;99.90
13798;DHT22;6970;51.340;3.240;2024-01-07T15:25:55;2.90;99.90
13798;DHT22;6970;51.340;3.240;2024-01-07T15:28:23;2.90;99.90
13798;DHT22;6970;51.340;3.240;2024-01-07T15:30:53;2.90;99.90
13798;DHT22;6970;51.340;3.240;2024-01-07T15:33:22;2.90;99.90
13798;DHT22;6970;51.340;3.240;2024-01-07T15:35:52;2.90;99.90
13798;DHT22;6970;51.340;3.240;2024-01-07T15:38:20;2.90;99.90
13798;DHT22;6970;51.340;3.240;2024-01-07T15:40:48;2.90;99.90
13798;DHT22;6970;51.340;3.240;2024-01-07T15:43:23;2.90;99.90
13798;DHT22;6970;51.340;3.240;2024-01-07T15:45:59;2.90;99.90
13798;DHT22;6970;51.340;3.240;2024-01-07T15:48:28;2.90;99.90
13798;DHT22;6970;51.340;3.240;2024-01-07T15:50:57;2.90;99.90
13798;DHT22;6970;51.340;3.240;2024-01-07T15:53:26;2.80;99.90
13798;DHT22;6970;51.340;3.240;2024-01-07T15:56:01;2.80;99.90
13798;DHT22;6970;51.340;3.240;2024-01-07T15:58:31;2.80;99.90
13798;DHT22;6970;51.340;3.240;2024-01-07T16:01:06;2.80;99.90
13798;DHT22;6970;51.340;3.240;2024-01-07T16:03:35;2.80;99.90
13798;DHT22;6970;51.340;3.240;2024-01-07T16:06:05;2.80;99.90
13798;DHT22;6970;51.340;3.240;2024-01-07T16:08:32;2.80;99.90
13798;DHT22;6970;51.340;3.240;2024-01-07T16:11:03;2.80;99.90
13798;DHT22;6970;51.340;3.240;2024-01-07T16:13:34;2.80;99.90
13798;DHT22;6970;51.340;3.240;2024-01-07T16:16:03;2.70;99.90
13798;DHT22;6970;51.340;3.240;2024-01-07T16:18:32;2.70;99.90
13798;DHT22;6970;51.340;3.240;2024-01-07T16:20:59;2.60;99.90